createdAt,value
2023-09-12T05:44:06.127Z,99931.69
2023-09-12T05:46:51.715Z,99931.69
2023-09-12T05:49:37.069Z,99934.94
2023-09-12T05:52:24.651Z,99940.09
2023-09-12T05:55:10.874Z,99935.62
2023-09-12T05:57:55.863Z,99933.19
2023-09-12T06:00:41.298Z,99938.22
2023-09-12T06:03:26.967Z,99942.34
2023-09-12T06:06:13.159Z,99939.59
2023-09-12T06:09:44.544Z,99941.19
2023-09-12T06:12:29.870Z,99937.41
2023-09-12T06:15:15.784Z,99942.47
2023-09-12T06:18:01.158Z,99940.91
2023-09-12T06:20:46.469Z,99937.12
2023-09-12T06:23:31.829Z,99940.78
2023-09-12T06:26:17.117Z,99924.91
2023-09-12T06:29:02.194Z,99930.56
2023-09-12T06:31:48.031Z,99925.06
2023-09-12T06:34:33.517Z,99918.41
2023-09-12T06:37:19.742Z,99932.75
2023-09-12T06:40:05.220Z,99930.66
2023-09-12T06:42:50.444Z,99934.41
2023-09-12T06:45:38.999Z,99939.78
2023-09-12T06:48:24.589Z,99940.44
2023-09-12T06:51:16.710Z,99935.69
2023-09-12T06:54:04.023Z,99931.47
2023-09-12T06:56:49.120Z,99941.34
2023-09-12T06:59:34.525Z,99943.62
2023-09-12T07:02:20.474Z,99939.78
2023-09-12T07:05:05.997Z,99945.72
2023-09-12T07:07:53.794Z,99944.19
2023-09-12T07:10:46.485Z,99946.47
2023-09-12T07:13:32.540Z,99942.06
2023-09-12T07:16:17.764Z,99939.87
2023-09-12T07:19:05.055Z,99947.59
2023-09-12T07:21:50.829Z,99958.69
2023-09-12T07:24:36.752Z,99950.00
2023-09-12T07:27:22.094Z,99932.13
2023-09-12T07:30:09.180Z,99950.50
2023-09-12T07:32:55.161Z,99951.53
2023-09-12T07:35:41.208Z,99953.00
2023-09-12T07:38:26.821Z,99959.06
2023-09-12T07:41:12.297Z,99960.84
2023-09-12T07:43:57.661Z,99954.75
2023-09-12T07:46:43.683Z,99953.69
2023-09-12T07:49:29.146Z,99959.84
2023-09-12T07:52:14.993Z,99958.28
2023-09-12T07:55:01.698Z,99963.69
2023-09-12T07:57:46.919Z,99964.19
2023-09-12T08:00:32.449Z,99955.94
2023-09-12T08:03:19.092Z,99960.19
2023-09-12T08:06:04.761Z,99960.75
2023-09-12T08:08:50.553Z,99965.41
2023-09-12T08:11:35.659Z,99957.88
2023-09-12T08:14:22.498Z,99964.78
2023-09-12T08:17:08.024Z,99964.03
2023-09-12T08:19:54.001Z,99964.53
2023-09-12T08:22:40.059Z,99967.53
2023-09-12T08:25:25.869Z,99969.22
2023-09-12T08:28:11.072Z,99973.81
2023-09-12T08:30:56.668Z,99981.16
2023-09-12T08:33:42.320Z,99975.56
2023-09-12T08:36:28.391Z,99970.47
2023-09-12T08:39:18.145Z,99979.34
2023-09-12T08:42:04.111Z,99970.97
2023-09-12T08:44:49.418Z,99973.81
2023-09-12T08:47:36.000Z,99967.66
2023-09-12T08:50:24.411Z,99942.94
2023-09-12T08:53:11.031Z,99964.06
2023-09-12T08:55:57.686Z,99957.03
2023-09-12T08:58:43.284Z,99968.72
2023-09-12T09:01:32.207Z,99968.75
2023-09-12T09:04:18.691Z,99963.00
2023-09-12T09:07:04.851Z,99960.00
2023-09-12T09:09:52.900Z,99960.34
2023-09-12T09:12:41.047Z,99958.69
2023-09-12T09:15:30.714Z,99956.81
2023-09-12T09:18:16.258Z,99959.97
2023-09-12T09:21:18.500Z,99958.25
2023-09-12T09:24:12.382Z,99960.94
2023-09-12T09:27:01.761Z,99961.56
2023-09-12T09:29:49.976Z,99963.72
2023-09-12T09:32:35.376Z,99950.72
2023-09-12T09:35:20.721Z,99958.13
2023-09-12T09:38:07.229Z,99949.34
2023-09-12T09:40:53.196Z,99955.28
2023-09-12T09:43:38.779Z,99953.97
2023-09-12T09:46:24.130Z,99953.41
2023-09-12T09:49:11.775Z,99951.56
2023-09-12T09:51:59.606Z,99952.25
2023-09-12T09:54:46.885Z,99948.78
2023-09-12T09:57:38.045Z,99952.03
2023-09-12T10:00:23.992Z,99956.69
2023-09-12T10:03:09.744Z,99947.53
2023-09-12T10:05:57.317Z,99942.47
2023-09-12T10:08:45.479Z,99942.16
2023-09-12T10:11:34.104Z,99944.28
2023-09-12T10:14:20.844Z,99947.50
2023-09-12T10:17:07.902Z,99939.59
2023-09-12T10:19:57.302Z,99944.22
2023-09-12T10:23:12.409Z,99936.50
2023-09-12T10:25:58.630Z,99920.88
2023-09-12T10:28:45.401Z,99917.47
2023-09-12T10:31:32.031Z,99922.56
2023-09-12T10:34:19.270Z,99913.34
2023-09-12T10:37:06.064Z,99915.41
2023-09-12T10:39:57.064Z,99900.50
2023-09-12T10:42:43.809Z,99906.78
2023-09-12T10:45:30.273Z,99906.16
2023-09-12T10:48:16.166Z,99910.78
2023-09-12T10:51:02.273Z,99910.47
2023-09-12T10:53:51.738Z,99894.78
2023-09-12T10:56:37.733Z,99894.94
2023-09-12T10:59:26.479Z,99904.22
2023-09-12T11:02:37.785Z,99892.19
2023-09-12T11:05:29.187Z,99899.03
2023-09-12T11:08:14.627Z,99888.31
2023-09-12T11:11:20.020Z,99887.19
2023-09-12T11:14:06.706Z,99890.66
2023-09-12T11:17:11.663Z,99881.38
2023-09-12T11:20:11.187Z,99882.72
2023-09-12T11:23:12.106Z,99882.97
2023-09-12T11:26:15.342Z,99878.56
2023-09-12T11:29:14.726Z,99881.88
2023-09-12T11:32:00.602Z,99871.56
2023-09-12T11:34:46.030Z,99877.81
2023-09-12T11:37:31.582Z,99878.28
2023-09-12T11:40:19.246Z,99872.47
2023-09-12T11:43:05.964Z,99867.25
2023-09-12T11:45:53.101Z,99853.00
2023-09-12T11:48:40.370Z,99854.44
2023-09-12T11:51:28.042Z,99854.09
2023-09-12T11:54:16.117Z,99849.28
2023-09-12T11:57:03.380Z,99839.63
2023-09-12T11:59:50.186Z,99843.59
2023-09-12T12:02:35.908Z,99841.97
2023-09-12T12:05:21.573Z,99840.06
2023-09-12T12:08:28.004Z,99841.91
2023-09-12T12:11:14.581Z,99842.47
2023-09-12T12:14:10.717Z,99841.44
2023-09-12T12:16:56.125Z,99833.28
2023-09-12T12:19:46.497Z,99815.12
2023-09-12T12:22:31.438Z,99822.09
2023-09-12T12:25:16.614Z,99824.53
2023-09-12T12:28:03.501Z,99831.84
2023-09-12T12:30:51.778Z,99821.09
2023-09-12T12:34:18.965Z,99815.19
2023-09-12T12:36:53.560Z,99816.84
2023-09-12T12:39:44.965Z,99817.31
2023-09-12T12:42:46.890Z,99811.78
